createdAt,value
2018-05-03T00:00:13.935Z,9.44
2018-05-03T00:01:40.319Z,9.47
2018-05-03T00:03:08.507Z,9.47
2018-05-03T00:04:34.816Z,9.48
2018-05-03T00:06:03.225Z,9.47
2018-05-03T00:07:29.589Z,9.46
2018-05-03T00:08:58.013Z,9.49
2018-05-03T00:10:24.232Z,9.51
2018-05-03T00:11:51.504Z,9.52
2018-05-03T00:13:18.373Z,9.55
2018-05-03T00:14:46.796Z,9.60
2018-05-03T00:16:13.074Z,9.66
2018-05-03T00:17:40.485Z,9.71
2018-05-03T00:19:07.767Z,9.75
2018-05-03T00:20:35.075Z,9.76
2018-05-03T00:22:03.477Z,9.76
2018-05-03T00:23:29.679Z,9.73
2018-05-03T00:24:56.936Z,9.71
2018-05-03T00:26:25.266Z,9.70
2018-05-03T00:27:51.547Z,9.70
2018-05-03T00:29:18.798Z,9.71
2018-05-03T00:30:46.186Z,9.73
2018-05-03T00:32:13.650Z,9.75
2018-05-03T00:33:40.915Z,9.74
2018-05-03T00:35:09.293Z,9.75
2018-05-03T00:36:36.667Z,9.77
2018-05-03T00:38:03.946Z,9.77
2018-05-03T00:39:30.216Z,9.77
2018-05-03T00:40:57.696Z,9.76
2018-05-03T00:42:24.915Z,9.74
2018-05-03T00:43:53.190Z,9.75
2018-05-03T00:45:20.454Z,9.76
2018-05-03T00:46:46.719Z,9.77
2018-05-03T00:48:15.123Z,9.76
2018-05-03T00:49:42.276Z,9.75
2018-05-03T00:51:08.725Z,9.76
2018-05-03T00:52:36.973Z,9.79
2018-05-03T00:54:03.209Z,9.78
2018-05-03T00:55:30.543Z,9.80
2018-05-03T00:56:57.790Z,9.83
2018-05-03T00:58:26.251Z,9.86
2018-05-03T00:59:52.442Z,9.89
2018-05-03T01:01:20.748Z,9.90
2018-05-03T01:02:48.218Z,9.89
2018-05-03T01:04:15.242Z,9.87
2018-05-03T01:05:41.627Z,9.84
2018-05-03T01:07:09.048Z,9.82
2018-05-03T01:08:36.453Z,9.80
2018-05-03T01:10:03.770Z,9.78
2018-05-03T01:11:32.219Z,9.77
2018-05-03T01:12:58.424Z,9.77
2018-05-03T01:14:26.750Z,9.75
2018-05-03T01:15:54.003Z,9.73
2018-05-03T01:17:20.311Z,9.72
2018-05-03T01:18:48.586Z,9.71
2018-05-03T01:20:15.038Z,9.66
2018-05-03T01:21:42.331Z,9.62
2018-05-03T01:23:09.576Z,9.63
2018-05-03T01:24:36.882Z,9.62
2018-05-03T01:26:04.247Z,9.63
2018-05-03T01:27:31.569Z,9.61
2018-05-03T01:28:58.976Z,9.59
2018-05-03T01:30:26.276Z,9.59
2018-05-03T01:31:53.594Z,9.58
2018-05-03T01:33:20.832Z,9.56
2018-05-03T01:34:48.031Z,9.52
2018-05-03T01:36:16.251Z,9.49
2018-05-03T01:37:43.518Z,9.45
2018-05-03T01:39:10.828Z,9.44
2018-05-03T01:40:38.247Z,9.44
2018-05-03T01:42:05.493Z,9.43
2018-05-03T01:43:31.765Z,9.42
2018-05-03T01:45:00.155Z,9.43
2018-05-03T01:46:27.594Z,9.41
2018-05-03T01:47:53.893Z,9.39
2018-05-03T01:49:22.132Z,9.36
2018-05-03T01:50:49.234Z,9.34
2018-05-03T01:52:16.568Z,9.35
2018-05-03T01:53:42.815Z,9.35
2018-05-03T01:55:10.244Z,9.36
2018-05-03T01:56:38.453Z,9.34
2018-05-03T01:58:04.741Z,9.30
2018-05-03T01:59:31.947Z,9.30
2018-05-03T02:00:59.157Z,9.30
2018-05-03T02:02:27.404Z,9.32
2018-05-03T02:03:53.687Z,9.34
2018-05-03T02:05:21.914Z,9.36
2018-05-03T02:06:47.858Z,9.39
2018-05-03T02:08:15.291Z,9.41
2018-05-03T02:09:42.565Z,9.41
2018-05-03T02:11:10.856Z,9.41
2018-05-03T02:12:36.952Z,9.42
2018-05-03T02:14:04.361Z,9.42
2018-05-03T02:15:31.679Z,9.37
2018-05-03T02:16:58.890Z,9.33
2018-05-03T02:18:27.320Z,9.34
2018-05-03T02:19:53.687Z,9.35
2018-05-03T02:21:22.180Z,9.37
2018-05-03T02:22:47.960Z,9.39
2018-05-03T02:24:15.190Z,9.38
2018-05-03T02:25:43.606Z,9.36
2018-05-03T02:27:11.109Z,9.33
2018-05-03T02:28:38.122Z,9.34
2018-05-03T02:30:04.406Z,9.34
2018-05-03T02:31:32.788Z,9.34
2018-05-03T02:33:00.022Z,9.33
2018-05-03T02:34:26.325Z,9.34
2018-05-03T02:35:54.731Z,9.35
2018-05-03T02:37:20.868Z,9.36
2018-05-03T02:38:48.913Z,9.35
2018-05-03T02:40:15.200Z,9.35
2018-05-03T02:41:42.563Z,9.35
2018-05-03T02:43:09.898Z,9.35
2018-05-03T02:44:38.220Z,9.35
2018-05-03T02:46:05.462Z,9.34
2018-05-03T02:47:31.881Z,9.35
2018-05-03T02:48:59.187Z,9.35
2018-05-03T02:50:27.534Z,9.33
2018-05-03T02:51:53.723Z,9.31
2018-05-03T02:53:21.855Z,9.29
2018-05-03T02:54:47.867Z,9.27
2018-05-03T02:56:15.274Z,9.27
2018-05-03T02:57:42.492Z,9.28
2018-05-03T02:59:09.929Z,9.28
2018-05-03T03:00:38.256Z,9.29
2018-05-03T03:02:05.530Z,9.29
2018-05-03T03:03:32.623Z,9.28
2018-05-03T03:04:58.875Z,9.28
2018-05-03T03:06:26.307Z,9.28
2018-05-03T03:07:53.505Z,9.28
2018-05-03T03:09:20.692Z,9.27
2018-05-03T03:10:48.157Z,9.26
2018-05-03T03:12:16.530Z,9.25
2018-05-03T03:13:42.797Z,9.22
2018-05-03T03:15:11.057Z,9.19
2018-05-03T03:16:37.386Z,9.12
2018-05-03T03:18:04.817Z,9.02
2018-05-03T03:19:32.123Z,8.90
2018-05-03T03:21:00.374Z,8.83
2018-05-03T03:22:26.656Z,8.77
2018-05-03T03:23:53.931Z,8.68
2018-05-03T03:25:22.287Z,8.63
2018-05-03T03:26:48.408Z,8.59
2018-05-03T03:28:15.729Z,8.55
2018-05-03T03:29:43.036Z,8.52
2018-05-03T03:31:10.317Z,8.50
2018-05-03T03:32:38.643Z,8.46
2018-05-03T03:34:04.805Z,8.46
2018-05-03T03:35:33.139Z,8.50
2018-05-03T03:37:00.396Z,8.56
2018-05-03T03:38:26.784Z,8.62
2018-05-03T03:39:55.083Z,8.67
2018-05-03T03:41:22.302Z,8.74
2018-05-03T03:42:48.458Z,8.80
2018-05-03T03:44:15.746Z,8.87
2018-05-03T03:45:44.076Z,8.92
2018-05-03T03:47:10.344Z,8.97
2018-05-03T03:48:37.759Z,9.03
2018-05-03T03:50:05.073Z,9.06
2018-05-03T03:51:32.338Z,9.11
2018-05-03T03:52:59.783Z,9.15
2018-05-03T03:54:27.076Z,9.19
2018-05-03T03:55:54.418Z,9.22
2018-05-03T03:57:21.768Z,9.26
2018-05-03T03:58:49.906Z,9.28
2018-05-03T04:00:16.204Z,9.30
2018-05-03T04:01:43.408Z,9.32
2018-05-03T04:03:10.753Z,9.36
2018-05-03T04:04:38.033Z,9.39
2018-05-03T04:06:05.470Z,9.44
2018-05-03T04:07:32.938Z,9.48
2018-05-03T04:09:00.303Z,9.53
2018-05-03T04:10:27.589Z,9.57
2018-05-03T04:11:54.808Z,9.61
2018-05-03T04:13:23.069Z,9.65
2018-05-03T04:14:49.228Z,9.69
2018-05-03T04:16:17.525Z,9.71
2018-05-03T04:17:44.000Z,9.68
2018-05-03T04:19:11.129Z,9.71
2018-05-03T04:20:38.352Z,9.76
2018-05-03T04:22:05.571Z,9.80
2018-05-03T04:23:32.887Z,9.84
2018-05-03T04:25:00.028Z,9.89
2018-05-03T04:26:27.472Z,9.94
2018-05-03T04:27:55.830Z,10.00
2018-05-03T04:29:22.194Z,10.05
2018-05-03T04:30:49.377Z,10.10
2018-05-03T04:32:17.631Z,10.15
2018-05-03T04:33:45.081Z,10.21
2018-05-03T04:35:11.559Z,10.26
2018-05-03T04:36:39.912Z,10.32
2018-05-03T04:38:07.338Z,10.37
2018-05-03T04:39:33.600Z,10.41
2018-05-03T04:41:00.822Z,10.39
2018-05-03T04:42:29.190Z,10.37
2018-05-03T04:43:56.638Z,10.35
2018-05-03T04:45:23.827Z,10.37
2018-05-03T04:46:50.199Z,10.36
2018-05-03T04:48:17.649Z,10.33
2018-05-03T04:49:44.925Z,10.31
2018-05-03T04:51:12.292Z,10.33
2018-05-03T04:52:40.560Z,10.33
2018-05-03T04:54:06.748Z,10.34
2018-05-03T04:55:35.132Z,10.37
2018-05-03T04:57:02.382Z,10.39
2018-05-03T04:58:28.646Z,10.43
2018-05-03T04:59:57.131Z,10.45
2018-05-03T05:01:24.315Z,10.48
2018-05-03T05:02:51.498Z,10.52
2018-05-03T05:04:17.838Z,10.57
2018-05-03T05:05:46.058Z,10.63
2018-05-03T05:07:12.519Z,10.68
2018-05-03T05:08:40.972Z,10.75
2018-05-03T05:10:08.246Z,10.81
2018-05-03T05:11:35.467Z,10.88
2018-05-03T05:13:02.717Z,10.95
2018-05-03T05:14:29.099Z,11.02
2018-05-03T05:15:56.520Z,11.08
2018-05-03T05:17:23.696Z,11.13
2018-05-03T05:18:52.001Z,11.18
2018-05-03T05:20:21.042Z,11.21
2018-05-03T05:21:45.283Z,11.24
2018-05-03T05:23:12.822Z,11.28
2018-05-03T05:24:43.175Z,11.32
2018-05-03T05:26:07.335Z,11.35
2018-05-03T05:27:34.513Z,11.38
2018-05-03T05:29:02.884Z,11.41
2018-05-03T05:30:30.221Z,11.44
2018-05-03T05:31:56.434Z,11.47
2018-05-03T05:33:24.693Z,11.52
2018-05-03T05:34:52.017Z,11.57
2018-05-03T05:36:19.251Z,11.63
2018-05-03T05:37:45.653Z,11.68
2018-05-03T05:39:13.128Z,11.77
2018-05-03T05:40:41.567Z,11.85
2018-05-03T05:42:08.102Z,11.95
2018-05-03T05:43:36.336Z,12.08
2018-05-03T05:45:03.639Z,12.25
2018-05-03T05:46:29.927Z,12.44
2018-05-03T05:47:57.206Z,12.62
2018-05-03T05:49:25.758Z,12.79
2018-05-03T05:50:53.056Z,12.95
2018-05-03T05:52:19.025Z,13.10
2018-05-03T05:53:46.433Z,13.22
2018-05-03T05:55:14.632Z,13.37
2018-05-03T05:56:42.106Z,13.51
2018-05-03T05:58:08.479Z,13.63
2018-05-03T05:59:35.715Z,13.71
2018-05-03T06:01:03.177Z,13.80
2018-05-03T06:02:30.555Z,13.90
2018-05-03T06:03:57.701Z,13.88
2018-05-03T06:05:26.263Z,13.87
2018-05-03T06:06:52.622Z,13.83
2018-05-03T06:08:19.942Z,13.80
2018-05-03T06:09:47.243Z,13.72
2018-05-03T06:11:14.740Z,13.69
2018-05-03T06:12:43.112Z,13.65
2018-05-03T06:14:10.542Z,13.67
2018-05-03T06:15:36.732Z,13.67
2018-05-03T06:17:05.339Z,13.64
2018-05-03T06:18:32.518Z,13.63
2018-05-03T06:19:58.848Z,13.62
2018-05-03T06:21:27.141Z,13.54
2018-05-03T06:22:54.479Z,13.53
2018-05-03T06:24:21.791Z,13.56
2018-05-03T06:25:47.808Z,13.62
2018-05-03T06:27:15.173Z,13.66
2018-05-03T06:28:43.520Z,13.63
2018-05-03T06:30:09.947Z,13.62
2018-05-03T06:31:38.142Z,13.67
2018-05-03T06:33:05.753Z,13.76
2018-05-03T06:34:33.153Z,13.73
2018-05-03T06:36:00.603Z,13.75
2018-05-03T06:37:27.878Z,13.73
2018-05-03T06:38:54.149Z,13.72
2018-05-03T06:40:22.687Z,13.75
2018-05-03T06:41:48.765Z,13.69
2018-05-03T06:43:16.075Z,13.74
2018-05-03T06:44:43.443Z,13.79
2018-05-03T06:46:11.834Z,13.81
2018-05-03T06:47:38.240Z,13.84
2018-05-03T06:49:05.635Z,13.86
2018-05-03T06:50:34.033Z,13.92
2018-05-03T06:52:01.605Z,13.99
2018-05-03T06:53:28.913Z,14.03
2018-05-03T06:54:56.250Z,14.11
2018-05-03T06:56:22.406Z,14.14
2018-05-03T06:57:49.427Z,14.18
2018-05-03T06:59:16.876Z,14.19
2018-05-03T07:00:44.252Z,14.16
2018-05-03T07:02:11.649Z,14.16
2018-05-03T07:03:39.059Z,14.20
2018-05-03T07:05:06.385Z,14.21
2018-05-03T07:06:33.984Z,14.20
2018-05-03T07:08:01.356Z,14.20
2018-05-03T07:09:28.826Z,14.21
2018-05-03T07:10:57.197Z,14.23
2018-05-03T07:12:23.418Z,14.28
2018-05-03T07:13:50.737Z,14.28
2018-05-03T07:15:18.015Z,14.30
2018-05-03T07:16:45.425Z,14.30
2018-05-03T07:18:13.681Z,14.28
2018-05-03T07:19:40.041Z,14.28
2018-05-03T07:21:07.524Z,14.30
2018-05-03T07:22:36.060Z,14.33
2018-05-03T07:24:02.228Z,14.36
2018-05-03T07:25:29.648Z,14.37
2018-05-03T07:26:56.948Z,14.37
2018-05-03T07:28:24.292Z,14.34
2018-05-03T07:29:51.655Z,14.34
2018-05-03T07:31:18.911Z,14.30
2018-05-03T07:32:46.432Z,14.28
2018-05-03T07:34:13.702Z,14.29
2018-05-03T07:35:41.030Z,14.29
2018-05-03T07:37:09.643Z,14.28
2018-05-03T07:38:37.053Z,14.28
2018-05-03T07:40:04.505Z,14.27
2018-05-03T07:41:30.832Z,14.28
2018-05-03T07:42:59.342Z,14.29
2018-05-03T07:44:25.685Z,14.33
2018-05-03T07:45:53.995Z,14.38
2018-05-03T07:47:21.243Z,14.45
2018-05-03T07:48:47.744Z,14.52
2018-05-03T07:50:15.095Z,14.59
2018-05-03T07:51:42.575Z,14.66
2018-05-03T07:53:11.194Z,14.74
2018-05-03T07:54:37.462Z,14.79
2018-05-03T07:56:05.896Z,14.84
2018-05-03T07:57:32.301Z,14.87
2018-05-03T07:58:59.630Z,14.93
2018-05-03T08:00:27.214Z,14.99
2018-05-03T08:01:54.560Z,15.03
2018-05-03T08:03:21.945Z,15.07
2018-05-03T08:04:49.519Z,15.09
2018-05-03T08:06:17.691Z,15.09
2018-05-03T08:07:44.114Z,15.12
2018-05-03T08:09:11.598Z,15.16
2018-05-03T08:10:39.054Z,15.19
2018-05-03T08:12:06.471Z,15.24
2018-05-03T08:13:34.947Z,15.27
2018-05-03T08:15:01.382Z,15.28
2018-05-03T08:16:29.738Z,15.27
2018-05-03T08:17:56.238Z,15.29
2018-05-03T08:19:24.746Z,15.32
2018-05-03T08:20:51.770Z,15.35
2018-05-03T08:22:18.463Z,15.40
2018-05-03T08:23:47.004Z,15.45
2018-05-03T08:25:13.423Z,15.48
2018-05-03T08:26:41.837Z,15.46
2018-05-03T08:28:08.185Z,15.46
2018-05-03T08:29:35.441Z,15.49
2018-05-03T08:31:03.396Z,15.50
2018-05-03T08:32:30.817Z,15.54
2018-05-03T08:33:58.274Z,15.58
2018-05-03T08:35:24.499Z,15.61
2018-05-03T08:36:51.954Z,15.61
2018-05-03T08:38:20.232Z,15.62
2018-05-03T08:39:47.731Z,15.64
2018-05-03T08:41:14.162Z,15.64
2018-05-03T08:42:41.640Z,15.60
2018-05-03T08:44:09.771Z,15.62
2018-05-03T08:45:37.029Z,15.61
2018-05-03T08:47:03.321Z,15.58
2018-05-03T08:48:31.695Z,15.54
2018-05-03T08:49:58.039Z,15.55
2018-05-03T08:51:26.568Z,15.58
2018-05-03T08:52:54.001Z,15.56
2018-05-03T08:54:20.356Z,15.59
2018-05-03T08:55:49.172Z,15.67
2018-05-03T08:57:15.674Z,15.74
2018-05-03T08:58:43.050Z,15.75
2018-05-03T09:00:09.932Z,15.75
2018-05-03T09:01:37.497Z,15.70
2018-05-03T09:04:33.273Z,15.59
2018-05-03T09:05:59.369Z,15.56
2018-05-03T09:07:26.687Z,15.54
2018-05-03T09:08:55.253Z,15.55
2018-05-03T09:10:21.397Z,15.51
2018-05-03T09:11:48.693Z,15.50
2018-05-03T09:13:16.607Z,15.50
2018-05-03T09:14:43.965Z,15.61
2018-05-03T09:16:10.459Z,15.73
2018-05-03T09:17:37.830Z,15.88
2018-05-03T09:19:05.282Z,16.01
2018-05-03T09:20:33.406Z,16.02
2018-05-03T09:21:59.749Z,16.04
2018-05-03T09:23:27.313Z,16.04
2018-05-03T09:24:54.477Z,16.09
2018-05-03T09:26:21.700Z,16.16
2018-05-03T09:27:48.904Z,16.23
2018-05-03T09:29:17.044Z,16.29
2018-05-03T09:30:43.215Z,16.28
2018-05-03T09:32:11.413Z,16.13
2018-05-03T09:33:37.586Z,15.99
2018-05-03T09:35:06.216Z,15.86
2018-05-03T09:36:32.377Z,15.81
2018-05-03T09:37:59.866Z,15.86
2018-05-03T09:39:28.140Z,15.83
2018-05-03T09:40:54.550Z,15.77
2018-05-03T09:42:21.708Z,15.65
2018-05-03T09:43:50.047Z,15.62
2018-05-03T09:45:17.226Z,15.56
2018-05-03T09:46:44.099Z,15.48
2018-05-03T09:48:11.374Z,15.51
2018-05-03T09:49:38.694Z,15.58
2018-05-03T09:51:05.052Z,15.63
2018-05-03T09:52:32.604Z,15.69
2018-05-03T09:54:01.125Z,15.72
2018-05-03T09:55:27.503Z,15.66
2018-05-03T09:56:54.590Z,15.69
2018-05-03T09:58:22.078Z,15.70
2018-05-03T09:59:49.354Z,15.76
2018-05-03T10:01:16.714Z,15.77
2018-05-03T10:02:44.017Z,15.80
2018-05-03T10:04:12.451Z,15.87
2018-05-03T10:05:38.744Z,15.89
2018-05-03T10:07:07.339Z,15.86
2018-05-03T10:08:34.730Z,15.88
2018-05-03T10:10:02.033Z,15.94
2018-05-03T10:11:28.072Z,15.96
2018-05-03T10:12:56.494Z,15.95
2018-05-03T10:14:22.759Z,15.90
2018-05-03T10:15:51.277Z,15.89
2018-05-03T10:17:17.498Z,15.93
2018-05-03T10:18:44.918Z,15.92
2018-05-03T10:20:12.254Z,15.89
2018-05-03T10:21:40.947Z,15.88
2018-05-03T10:23:07.242Z,15.86
2018-05-03T10:24:35.696Z,15.83
2018-05-03T10:26:01.925Z,15.89
2018-05-03T10:27:30.420Z,15.90
2018-05-03T10:28:57.743Z,15.85
2018-05-03T10:30:24.851Z,15.85
2018-05-03T10:31:52.175Z,15.84
2018-05-03T10:33:18.285Z,15.82
2018-05-03T10:34:45.681Z,15.84
2018-05-03T10:36:13.993Z,15.86
2018-05-03T10:37:41.144Z,15.89
2018-05-03T10:39:08.642Z,15.92
2018-05-03T10:40:36.041Z,15.96
2018-05-03T10:42:02.520Z,16.09
2018-05-03T10:43:29.833Z,16.23
2018-05-03T10:44:57.449Z,16.39
2018-05-03T10:46:24.741Z,16.52
2018-05-03T10:47:52.999Z,16.57
2018-05-03T10:49:19.226Z,16.65
2018-05-03T10:50:52.332Z,16.71
2018-05-03T10:52:13.568Z,16.79
2018-05-03T10:53:41.131Z,16.77
2018-05-03T10:55:09.518Z,16.61
2018-05-03T10:56:35.982Z,16.47
2018-05-03T10:58:04.330Z,16.41
2018-05-03T10:59:30.798Z,16.41
2018-05-03T11:00:58.233Z,16.48
2018-05-03T11:02:26.522Z,16.60
2018-05-03T11:03:52.313Z,16.78
2018-05-03T11:05:20.791Z,16.93
2018-05-03T11:06:47.215Z,17.00
2018-05-03T11:08:14.689Z,17.12
2018-05-03T11:09:42.001Z,17.19
2018-05-03T11:11:10.578Z,17.26
2018-05-03T11:12:37.758Z,17.22
2018-05-03T11:14:04.160Z,17.18
2018-05-03T11:15:31.568Z,17.19
2018-05-03T11:16:59.033Z,17.12
2018-05-03T11:18:27.575Z,17.10
2018-05-03T11:19:53.943Z,17.18
2018-05-03T11:21:22.274Z,17.25
2018-05-03T11:22:49.645Z,17.32
2018-05-03T11:24:16.009Z,17.39
2018-05-03T11:25:43.593Z,17.60
2018-05-03T11:27:11.113Z,17.70
2018-05-03T11:28:39.495Z,17.72
2018-05-03T11:30:06.998Z,17.62
2018-05-03T11:31:34.607Z,17.77
2018-05-03T11:33:02.091Z,17.94
2018-05-03T11:34:28.329Z,18.07
2018-05-03T11:35:55.791Z,18.03
2018-05-03T11:37:23.371Z,18.01
2018-05-03T11:38:51.726Z,17.95
2018-05-03T11:40:18.127Z,18.05
2018-05-03T11:41:45.475Z,18.08
2018-05-03T11:43:13.876Z,18.08
2018-05-03T11:44:40.389Z,18.16
2018-05-03T11:46:07.769Z,18.27
2018-05-03T11:47:35.285Z,18.43
2018-05-03T11:49:02.714Z,18.65
2018-05-03T11:50:30.253Z,18.73
2018-05-03T11:51:57.674Z,18.82
2018-05-03T11:53:25.963Z,18.89
2018-05-03T11:54:52.590Z,19.07
2018-05-03T11:56:20.095Z,19.11
2018-05-03T11:57:48.501Z,19.35
2018-05-03T11:59:15.933Z,19.35
2018-05-03T12:00:42.253Z,19.23
2018-05-03T12:02:09.726Z,19.17
2018-05-03T12:03:37.286Z,19.25
2018-05-03T12:05:04.743Z,19.38
2018-05-03T12:06:32.297Z,19.37
2018-05-03T12:07:59.837Z,19.38
2018-05-03T12:09:27.242Z,19.48
2018-05-03T12:10:54.790Z,19.43
2018-05-03T12:12:22.135Z,19.15
2018-05-03T12:13:50.430Z,18.96
2018-05-03T12:15:16.800Z,18.99
2018-05-03T12:16:44.112Z,19.04
2018-05-03T12:18:11.315Z,18.92
2018-05-03T12:19:39.712Z,18.88
2018-05-03T12:21:05.981Z,18.72
2018-05-03T12:22:34.263Z,18.92
2018-05-03T12:24:00.655Z,19.02
2018-05-03T12:25:28.619Z,19.11
2018-05-03T12:26:55.070Z,19.26
2018-05-03T12:28:23.440Z,19.45
2018-05-03T12:29:49.807Z,19.46
2018-05-03T12:31:18.352Z,19.29
2018-05-03T12:32:45.965Z,19.27
2018-05-03T12:34:12.286Z,19.14
2018-05-03T12:35:40.879Z,18.98
2018-05-03T12:37:07.293Z,18.91
2018-05-03T12:38:34.592Z,18.96
2018-05-03T12:40:02.924Z,19.04
2018-05-03T12:41:29.628Z,19.15
2018-05-03T12:42:56.963Z,19.10
2018-05-03T12:44:24.380Z,18.92
2018-05-03T12:45:51.808Z,18.97
2018-05-03T12:47:20.065Z,18.98
2018-05-03T12:48:46.520Z,19.02
2018-05-03T12:50:13.966Z,19.11
2018-05-03T12:51:42.495Z,19.13
2018-05-03T12:53:08.875Z,19.11
2018-05-03T12:54:37.421Z,19.18
2018-05-03T12:56:03.838Z,19.08
2018-05-03T12:57:31.216Z,19.14
2018-05-03T12:58:59.774Z,19.01
2018-05-03T13:00:26.204Z,18.93
2018-05-03T13:01:53.514Z,18.95
2018-05-03T13:03:21.911Z,19.05
2018-05-03T13:04:49.658Z,18.95
2018-05-03T13:06:16.028Z,18.94
2018-05-03T13:07:43.443Z,18.74
2018-05-03T13:09:11.996Z,18.65
2018-05-03T13:10:38.506Z,18.68
2018-05-03T13:12:06.917Z,18.67
2018-05-03T13:13:33.358Z,18.65
2018-05-03T13:15:00.892Z,18.73
2018-05-03T13:16:29.335Z,18.79
2018-05-03T13:17:55.881Z,18.65
2018-05-03T13:19:23.042Z,18.57
2018-05-03T13:20:50.440Z,18.29
2018-05-03T13:22:17.961Z,18.12
2018-05-03T13:23:45.079Z,18.01
2018-05-03T13:25:12.540Z,17.84
2018-05-03T13:26:39.820Z,17.92
2018-05-03T13:28:08.064Z,17.90
2018-05-03T13:29:35.382Z,17.73
2018-05-03T13:31:02.735Z,17.60
2018-05-03T13:32:29.129Z,17.53
2018-05-03T13:33:57.476Z,17.53
2018-05-03T13:35:23.787Z,17.40
2018-05-03T13:36:50.848Z,17.18
2018-05-03T13:38:18.266Z,17.12
2018-05-03T13:39:45.683Z,17.14
2018-05-03T13:41:13.059Z,17.13
2018-05-03T13:42:40.512Z,17.06
2018-05-03T13:44:08.059Z,16.99
2018-05-03T13:45:35.037Z,16.98
2018-05-03T13:47:02.497Z,16.97
2018-05-03T13:48:29.659Z,16.98
2018-05-03T13:49:59.987Z,16.95
2018-05-03T13:51:24.005Z,16.91
2018-05-03T13:52:52.301Z,16.85
2018-05-03T13:54:19.692Z,16.81
2018-05-03T13:55:47.071Z,16.85
2018-05-03T13:57:13.577Z,16.80
2018-05-03T13:58:41.036Z,16.63
2018-05-03T14:00:08.493Z,16.41
2018-05-03T14:01:35.701Z,16.32
2018-05-03T14:03:03.204Z,16.16
2018-05-03T14:04:30.532Z,16.05
2018-05-03T14:05:57.860Z,15.95
2018-05-03T14:07:25.275Z,15.85
2018-05-03T14:08:53.537Z,15.78
2018-05-03T14:10:19.740Z,15.64
2018-05-03T14:11:48.240Z,15.61
2018-05-03T14:13:14.488Z,15.68
2018-05-03T14:14:43.021Z,15.64
2018-05-03T14:16:09.504Z,15.68
2018-05-03T14:17:38.124Z,15.76
2018-05-03T14:19:04.128Z,15.86
2018-05-03T14:20:32.622Z,15.94
2018-05-03T14:21:58.552Z,16.01
2018-05-03T14:23:25.546Z,15.99
2018-05-03T14:24:54.019Z,15.98
2018-05-03T14:26:20.345Z,15.93
2018-05-03T14:27:48.337Z,15.85
2018-05-03T14:29:14.624Z,15.80
2018-05-03T14:30:43.175Z,15.84
2018-05-03T14:32:10.529Z,15.92
2018-05-03T14:33:36.781Z,15.98
2018-05-03T14:35:05.194Z,15.98
2018-05-03T14:36:31.528Z,15.99
2018-05-03T14:37:59.762Z,15.93
2018-05-03T14:39:27.396Z,15.96
2018-05-03T14:40:54.635Z,15.96
2018-05-03T14:42:20.900Z,15.94
2018-05-03T14:43:49.620Z,15.91
2018-05-03T14:45:15.977Z,15.87
2018-05-03T14:46:43.372Z,15.82
2018-05-03T14:48:10.686Z,15.84
2018-05-03T14:49:38.054Z,15.86
2018-05-03T14:51:06.303Z,15.83
2018-05-03T14:52:33.963Z,15.78
2018-05-03T14:54:00.288Z,15.82
2018-05-03T14:55:28.688Z,15.89
2018-05-03T14:56:55.065Z,15.95
2018-05-03T14:58:23.598Z,15.98
2018-05-03T14:59:49.885Z,15.96
2018-05-03T15:01:18.400Z,15.99
2018-05-03T15:02:44.782Z,15.96
2018-05-03T15:04:12.161Z,15.91
2018-05-03T15:05:39.527Z,15.89
2018-05-03T15:07:07.665Z,15.83
2018-05-03T15:08:34.165Z,15.81
2018-05-03T15:10:02.517Z,15.78
2018-05-03T15:11:28.874Z,15.79
2018-05-03T15:12:56.231Z,15.78
2018-05-03T15:14:23.596Z,15.79
2018-05-03T15:15:52.007Z,15.74
2018-05-03T15:17:18.410Z,15.73
2018-05-03T15:18:45.736Z,15.73
2018-05-03T15:20:13.122Z,15.71
2018-05-03T15:21:40.587Z,15.66
2018-05-03T15:23:08.096Z,15.60
2018-05-03T15:24:36.304Z,15.56
2018-05-03T15:26:02.545Z,15.55
2018-05-03T15:27:29.831Z,15.44
2018-05-03T15:28:57.177Z,15.35
2018-05-03T15:30:24.465Z,15.31
2018-05-03T15:31:52.714Z,15.32
2018-05-03T15:33:18.936Z,15.34
2018-05-03T15:34:46.405Z,15.38
2018-05-03T15:36:14.603Z,15.34
2018-05-03T15:37:40.969Z,15.33
2018-05-03T15:39:09.480Z,15.30
2018-05-03T15:40:35.691Z,15.27
2018-05-03T15:42:03.972Z,15.22
2018-05-03T15:43:31.603Z,15.18
2018-05-03T15:44:57.860Z,15.10
2018-05-03T15:46:25.121Z,15.08
2018-05-03T15:47:53.409Z,15.10
2018-05-03T15:49:19.782Z,15.16
2018-05-03T15:50:47.205Z,15.21
2018-05-03T15:52:14.668Z,15.22
2018-05-03T15:53:42.184Z,15.24
2018-05-03T15:55:09.638Z,15.23
2018-05-03T15:56:38.285Z,15.18
2018-05-03T15:58:04.737Z,15.15
2018-05-03T15:59:32.239Z,15.10
2018-05-03T16:00:59.383Z,15.05
2018-05-03T16:02:26.930Z,15.05
2018-05-03T16:03:55.200Z,15.00
2018-05-03T16:05:21.314Z,14.96
2018-05-03T16:06:48.329Z,14.99
2018-05-03T16:08:15.771Z,15.02
2018-05-03T16:09:43.173Z,15.06
2018-05-03T16:11:11.514Z,15.08
2018-05-03T16:12:41.137Z,15.06
2018-05-03T16:14:05.469Z,14.93
2018-05-03T16:15:32.831Z,14.81
2018-05-03T16:17:00.146Z,14.73
2018-05-03T16:18:28.575Z,14.65
2018-05-03T16:19:54.897Z,14.59
2018-05-03T16:21:22.288Z,14.59
2018-05-03T16:22:49.526Z,14.56
2018-05-03T16:24:17.010Z,14.52
2018-05-03T16:25:44.440Z,14.44
2018-05-03T16:27:11.797Z,14.35
2018-05-03T16:28:39.082Z,14.28
2018-05-03T16:30:06.544Z,14.25
2018-05-03T16:31:34.839Z,14.20
2018-05-03T16:33:01.233Z,14.16
2018-05-03T16:34:28.636Z,14.15
2018-05-03T16:35:56.035Z,14.10
2018-05-03T16:37:24.706Z,14.00
2018-05-03T16:38:50.849Z,13.91
2018-05-03T16:40:18.196Z,13.87
2018-05-03T16:41:45.307Z,13.80
2018-05-03T16:43:13.544Z,13.75
2018-05-03T16:44:40.874Z,13.71
2018-05-03T16:46:08.305Z,13.68
2018-05-03T16:47:34.505Z,13.66
2018-05-03T16:49:03.130Z,13.62
2018-05-03T16:50:29.342Z,13.56
2018-05-03T16:51:57.706Z,13.51
2018-05-03T16:53:24.902Z,13.48
2018-05-03T16:54:51.125Z,13.45
2018-05-03T16:56:18.390Z,13.44
2018-05-03T16:57:45.796Z,13.42
2018-05-03T16:59:14.183Z,13.39
2018-05-03T17:00:41.441Z,13.36
2018-05-03T17:02:08.831Z,13.33
2018-05-03T17:03:36.210Z,13.32
2018-05-03T17:05:03.507Z,13.30
2018-05-03T17:06:29.840Z,13.33
2018-05-03T17:07:57.185Z,13.32
2018-05-03T17:09:24.703Z,13.31
2018-05-03T17:10:52.832Z,13.31
2018-05-03T17:12:19.227Z,13.32
2018-05-03T17:13:46.519Z,13.35
2018-05-03T17:15:14.018Z,13.36
2018-05-03T17:16:41.145Z,13.38
2018-05-03T17:18:08.554Z,13.37
2018-05-03T17:19:35.898Z,13.35
2018-05-03T17:21:03.358Z,13.34
2018-05-03T17:22:31.720Z,13.37
2018-05-03T17:23:58.031Z,13.41
2018-05-03T17:25:25.312Z,13.41
2018-05-03T17:26:53.702Z,13.42
2018-05-03T17:28:19.767Z,13.43
2018-05-03T17:29:48.282Z,13.41
2018-05-03T17:31:14.558Z,13.39
2018-05-03T17:32:42.042Z,13.41
2018-05-03T17:34:10.363Z,13.41
2018-05-03T17:35:37.393Z,13.40
2018-05-03T17:37:05.072Z,13.38
2018-05-03T17:38:32.453Z,13.36
2018-05-03T17:39:58.704Z,13.34
2018-05-03T17:41:26.957Z,13.31
2018-05-03T17:42:53.281Z,13.29
2018-05-03T17:44:21.731Z,13.29
2018-05-03T17:45:49.146Z,13.28
2018-05-03T17:47:15.407Z,13.27
2018-05-03T17:48:42.703Z,13.25
2018-05-03T17:50:10.163Z,13.26
2018-05-03T17:51:37.633Z,13.24
2018-05-03T17:53:06.111Z,13.25
2018-05-03T17:54:33.370Z,13.22
2018-05-03T17:56:00.873Z,13.20
2018-05-03T17:57:27.002Z,13.20
2018-05-03T17:58:55.402Z,13.22
2018-05-03T18:00:21.690Z,13.20
2018-05-03T18:01:48.898Z,13.18
2018-05-03T18:03:16.602Z,13.17
2018-05-03T18:04:44.583Z,13.15
2018-05-03T18:06:10.643Z,13.12
2018-05-03T18:07:37.985Z,13.14
2018-05-03T18:09:05.343Z,13.12
2018-05-03T18:10:33.756Z,13.10
2018-05-03T18:11:59.958Z,13.05
2018-05-03T18:13:27.497Z,13.04
2018-05-03T18:14:54.859Z,13.04
2018-05-03T18:16:22.356Z,13.04
2018-05-03T18:17:49.572Z,13.05
2018-05-03T18:19:18.144Z,13.02
2018-05-03T18:20:45.420Z,13.00
2018-05-03T18:22:11.754Z,13.01
2018-05-03T18:23:39.266Z,13.01
2018-05-03T18:25:06.712Z,13.01
2018-05-03T18:26:34.921Z,13.01
2018-05-03T18:28:02.129Z,13.02
2018-05-03T18:29:28.484Z,13.00
2018-05-03T18:30:55.921Z,12.97
2018-05-03T18:32:23.125Z,12.92
2018-05-03T18:33:50.447Z,12.87
2018-05-03T18:35:18.584Z,12.82
2018-05-03T18:36:45.942Z,12.81
2018-05-03T18:38:12.219Z,12.78
2018-05-03T18:39:40.890Z,12.71
2018-05-03T18:41:07.083Z,12.66
2018-05-03T18:42:35.294Z,12.62
2018-05-03T18:44:02.705Z,12.62
2018-05-03T18:45:28.854Z,12.59
2018-05-03T18:46:56.215Z,12.59
2018-05-03T18:48:23.598Z,12.54
2018-05-03T18:49:51.981Z,12.50
2018-05-03T18:51:18.595Z,12.43
2018-05-03T18:52:45.882Z,12.40
2018-05-03T18:54:13.122Z,12.35